sensor_id;sensor_type;location;lat;lon;timestamp;P1;durP1;ratioP1;P2;durP2;ratioP2
52025;SDS011;38041;40.058;18.328;2023-03-11T00:00:37;13.80;;;1.90;;
52025;SDS011;38041;40.058;18.328;2023-03-11T00:03:06;14.87;;;2.13;;
52025;SDS011;38041;40.058;18.328;2023-03-11T00:05:35;15.63;;;1.00;;
52025;SDS011;38041;40.058;18.328;2023-03-11T00:08:04;12.97;;;2.07;;
52025;SDS011;38041;40.058;18.328;2023-03-11T00:10:36;9.33;;;1.30;;
52025;SDS011;38041;40.058;18.328;2023-03-11T00:13:04;14.03;;;2.10;;
52025;SDS011;38041;40.058;18.328;2023-03-11T00:15:33;16.57;;;2.17;;
52025;SDS011;38041;40.058;18.328;2023-03-11T00:18:01;14.83;;;1.93;;
52025;SDS011;38041;40.058;18.328;2023-03-11T00:20:32;17.47;;;1.60;;
52025;SDS011;38041;40.058;18.328;2023-03-11T00:23:00;11.73;;;0.97;;
52025;SDS011;38041;40.058;18.328;2023-03-11T00:25:29;21.03;;;1.43;;
52025;SDS011;38041;40.058;18.328;2023-03-11T00:27:57;13.70;;;1.30;;
52025;SDS011;38041;40.058;18.328;2023-03-11T00:30:26;14.40;;;1.53;;
52025;SDS011;38041;40.058;18.328;2023-03-11T00:32:54;19.77;;;3.00;;
52025;SDS011;38041;40.058;18.328;2023-03-11T00:35:24;14.50;;;2.03;;
52025;SDS011;38041;40.058;18.328;2023-03-11T00:37:53;15.50;;;2.07;;
52025;SDS011;38041;40.058;18.328;2023-03-11T00:40:22;8.57;;;1.43;;
52025;SDS011;38041;40.058;18.328;2023-03-11T00:42:50;17.07;;;2.70;;
52025;SDS011;38041;40.058;18.328;2023-03-11T00:45:18;9.90;;;1.07;;
52025;SDS011;38041;40.058;18.328;2023-03-11T00:47:46;15.63;;;0.90;;
52025;SDS011;38041;40.058;18.328;2023-03-11T00:50:15;15.63;;;1.40;;
52025;SDS011;38041;40.058;18.328;2023-03-11T00:52:44;15.10;;;2.10;;
52025;SDS011;38041;40.058;18.328;2023-03-11T00:55:16;10.83;;;1.00;;
52025;SDS011;38041;40.058;18.328;2023-03-11T00:57:44;13.73;;;0.90;;
52025;SDS011;38041;40.058;18.328;2023-03-11T01:00:13;12.60;;;1.00;;
52025;SDS011;38041;40.058;18.328;2023-03-11T01:02:41;11.63;;;2.30;;
52025;SDS011;38041;40.058;18.328;2023-03-11T01:05:09;7.73;;;0.90;;
52025;SDS011;38041;40.058;18.328;2023-03-11T01:07:37;10.43;;;2.00;;
52025;SDS011;38041;40.058;18.328;2023-03-11T01:10:05;10.50;;;1.37;;
52025;SDS011;38041;40.058;18.328;2023-03-11T01:12:33;15.50;;;0.90;;
52025;SDS011;38041;40.058;18.328;2023-03-11T01:15:01;13.03;;;0.90;;
52025;SDS011;38041;40.058;18.328;2023-03-11T01:17:29;11.83;;;1.33;;
52025;SDS011;38041;40.058;18.328;2023-03-11T01:19:57;8.87;;;1.47;;
52025;SDS011;38041;40.058;18.328;2023-03-11T01:22:25;9.73;;;1.30;;
52025;SDS011;38041;40.058;18.328;2023-03-11T01:24:54;6.70;;;0.67;;
52025;SDS011;38041;40.058;18.328;2023-03-11T01:27:22;10.97;;;0.90;;
52025;SDS011;38041;40.058;18.328;2023-03-11T01:29:49;10.43;;;0.83;;
52025;SDS011;38041;40.058;18.328;2023-03-11T01:32:18;11.63;;;1.50;;
52025;SDS011;38041;40.058;18.328;2023-03-11T01:34:45;10.73;;;0.90;;
52025;SDS011;38041;40.058;18.328;2023-03-11T01:37:13;9.37;;;1.00;;
52025;SDS011;38041;40.058;18.328;2023-03-11T01:39:41;19.53;;;1.47;;
52025;SDS011;38041;40.058;18.328;2023-03-11T01:42:08;16.67;;;1.70;;
52025;SDS011;38041;40.058;18.328;2023-03-11T01:44:36;15.33;;;0.80;;
52025;SDS011;38041;40.058;18.328;2023-03-11T01:49:33;9.97;;;1.70;;
52025;SDS011;38041;40.058;18.328;2023-03-11T01:52:02;13.43;;;1.43;;
52025;SDS011;38041;40.058;18.328;2023-03-11T01:54:39;13.30;;;1.10;;
52025;SDS011;38041;40.058;18.328;2023-03-11T01:57:09;7.20;;;1.63;;
52025;SDS011;38041;40.058;18.328;2023-03-11T01:59:38;10.03;;;1.23;;
52025;SDS011;38041;40.058;18.328;2023-03-11T02:02:41;15.90;;;1.40;;
52025;SDS011;38041;40.058;18.328;2023-03-11T02:05:01;19.37;;;1.37;;
52025;SDS011;38041;40.058;18.328;2023-03-11T02:07:29;13.83;;;2.03;;
52025;SDS011;38041;40.058;18.328;2023-03-11T02:09:57;13.87;;;1.30;;
52025;SDS011;38041;40.058;18.328;2023-03-11T02:12:24;13.83;;;2.20;;
52025;SDS011;38041;40.058;18.328;2023-03-11T02:14:55;12.60;;;1.27;;
52025;SDS011;38041;40.058;18.328;2023-03-11T02:17:23;18.87;;;1.50;;
52025;SDS011;38041;40.058;18.328;2023-03-11T02:22:23;14.97;;;2.33;;
52025;SDS011;38041;40.058;18.328;2023-03-11T02:27:39;18.07;;;1.70;;
52025;SDS011;38041;40.058;18.328;2023-03-11T02:30:09;16.00;;;1.80;;
52025;SDS011;38041;40.058;18.328;2023-03-11T02:32:38;20.03;;;2.17;;
52025;SDS011;38041;40.058;18.328;2023-03-11T02:35:07;22.53;;;2.13;;
52025;SDS011;38041;40.058;18.328;2023-03-11T02:37:35;13.60;;;1.87;;
52025;SDS011;38041;40.058;18.328;2023-03-11T02:43:00;29.37;;;2.67;;
52025;SDS011;38041;40.058;18.328;2023-03-11T02:45:29;17.97;;;3.27;;
52025;SDS011;38041;40.058;18.328;2023-03-11T02:47:57;17.77;;;2.67;;
52025;SDS011;38041;40.058;18.328;2023-03-11T02:50:26;25.20;;;3.03;;
52025;SDS011;38041;40.058;18.328;2023-03-11T02:52:55;27.60;;;3.17;;
52025;SDS011;38041;40.058;18.328;2023-03-11T02:55:23;30.53;;;4.17;;
52025;SDS011;38041;40.058;18.328;2023-03-11T02:57:50;22.07;;;3.17;;
52025;SDS011;38041;40.058;18.328;2023-03-11T03:00:18;30.60;;;4.40;;
52025;SDS011;38041;40.058;18.328;2023-03-11T03:02:55;16.27;;;2.73;;
52025;SDS011;38041;40.058;18.328;2023-03-11T03:05:24;32.73;;;3.87;;
52025;SDS011;38041;40.058;18.328;2023-03-11T03:07:52;29.53;;;4.07;;
52025;SDS011;38041;40.058;18.328;2023-03-11T03:10:20;27.37;;;3.60;;
52025;SDS011;38041;40.058;18.328;2023-03-11T03:12:48;23.13;;;3.37;;
52025;SDS011;38041;40.058;18.328;2023-03-11T03:15:16;27.97;;;3.67;;
52025;SDS011;38041;40.058;18.328;2023-03-11T03:17:44;25.60;;;4.30;;
52025;SDS011;38041;40.058;18.328;2023-03-11T03:20:12;24.73;;;2.87;;
52025;SDS011;38041;40.058;18.328;2023-03-11T03:22:45;25.93;;;3.63;;
52025;SDS011;38041;40.058;18.328;2023-03-11T03:25:16;20.67;;;3.93;;
52025;SDS011;38041;40.058;18.328;2023-03-11T03:27:44;28.33;;;3.20;;
52025;SDS011;38041;40.058;18.328;2023-03-11T03:30:12;36.37;;;3.33;;
52025;SDS011;38041;40.058;18.328;2023-03-11T03:32:40;32.27;;;4.17;;
52025;SDS011;38041;40.058;18.328;2023-03-11T03:35:11;21.77;;;3.87;;
52025;SDS011;38041;40.058;18.328;2023-03-11T03:37:52;32.97;;;2.57;;
52025;SDS011;38041;40.058;18.328;2023-03-11T03:40:21;33.70;;;5.43;;
52025;SDS011;38041;40.058;18.328;2023-03-11T03:42:51;34.83;;;4.43;;
52025;SDS011;38041;40.058;18.328;2023-03-11T03:45:19;26.97;;;4.47;;
52025;SDS011;38041;40.058;18.328;2023-03-11T03:47:50;34.67;;;4.27;;
52025;SDS011;38041;40.058;18.328;2023-03-11T03:50:20;25.30;;;3.97;;
52025;SDS011;38041;40.058;18.328;2023-03-11T03:52:50;28.17;;;4.17;;
52025;SDS011;38041;40.058;18.328;2023-03-11T03:55:19;32.97;;;3.53;;
52025;SDS011;38041;40.058;18.328;2023-03-11T03:57:47;30.83;;;4.63;;
52025;SDS011;38041;40.058;18.328;2023-03-11T04:00:16;31.27;;;3.70;;
52025;SDS011;38041;40.058;18.328;2023-03-11T04:02:50;39.23;;;6.10;;
52025;SDS011;38041;40.058;18.328;2023-03-11T04:05:25;31.35;;;4.32;;
52025;SDS011;38041;40.058;18.328;2023-03-11T04:07:54;28.40;;;2.73;;
52025;SDS011;38041;40.058;18.328;2023-03-11T04:10:22;22.40;;;3.67;;
52025;SDS011;38041;40.058;18.328;2023-03-11T04:12:50;27.30;;;5.10;;
52025;SDS011;38041;40.058;18.328;2023-03-11T04:15:18;37.70;;;6.10;;
52025;SDS011;38041;40.058;18.328;2023-03-11T04:17:47;35.07;;;5.43;;
52025;SDS011;38041;40.058;18.328;2023-03-11T04:20:15;37.83;;;5.13;;
52025;SDS011;38041;40.058;18.328;2023-03-11T04:22:45;31.60;;;4.53;;
52025;SDS011;38041;40.058;18.328;2023-03-11T04:25:13;33.50;;;4.23;;
52025;SDS011;38041;40.058;18.328;2023-03-11T04:27:41;34.77;;;6.10;;
52025;SDS011;38041;40.058;18.328;2023-03-11T04:30:12;39.27;;;4.57;;
52025;SDS011;38041;40.058;18.328;2023-03-11T04:32:42;31.67;;;4.33;;
52025;SDS011;38041;40.058;18.328;2023-03-11T04:35:10;26.73;;;3.33;;
52025;SDS011;38041;40.058;18.328;2023-03-11T04:37:38;29.33;;;3.33;;
52025;SDS011;38041;40.058;18.328;2023-03-11T04:40:06;23.17;;;3.90;;
52025;SDS011;38041;40.058;18.328;2023-03-11T04:42:35;28.00;;;5.13;;
52025;SDS011;38041;40.058;18.328;2023-03-11T04:45:03;30.80;;;4.03;;
52025;SDS011;38041;40.058;18.328;2023-03-11T04:47:31;32.53;;;5.00;;
52025;SDS011;38041;40.058;18.328;2023-03-11T04:49:59;31.83;;;4.80;;
52025;SDS011;38041;40.058;18.328;2023-03-11T04:52:28;33.43;;;4.20;;
52025;SDS011;38041;40.058;18.328;2023-03-11T04:54:56;38.67;;;5.63;;
52025;SDS011;38041;40.058;18.328;2023-03-11T04:57:24;31.63;;;5.07;;
52025;SDS011;38041;40.058;18.328;2023-03-11T04:59:52;27.57;;;4.50;;
52025;SDS011;38041;40.058;18.328;2023-03-11T05:02:20;30.63;;;5.33;;
52025;SDS011;38041;40.058;18.328;2023-03-11T05:04:52;32.33;;;4.73;;
52025;SDS011;38041;40.058;18.328;2023-03-11T05:07:20;33.97;;;5.40;;
52025;SDS011;38041;40.058;18.328;2023-03-11T05:09:49;27.43;;;4.50;;
52025;SDS011;38041;40.058;18.328;2023-03-11T05:12:16;30.70;;;4.83;;
52025;SDS011;38041;40.058;18.328;2023-03-11T05:14:48;27.87;;;3.90;;
52025;SDS011;38041;40.058;18.328;2023-03-11T05:17:16;33.83;;;5.87;;
52025;SDS011;38041;40.058;18.328;2023-03-11T05:19:46;44.20;;;5.20;;
52025;SDS011;38041;40.058;18.328;2023-03-11T05:22:22;44.67;;;5.17;;
52025;SDS011;38041;40.058;18.328;2023-03-11T05:24:50;30.47;;;6.10;;
52025;SDS011;38041;40.058;18.328;2023-03-11T05:27:18;36.13;;;4.60;;
52025;SDS011;38041;40.058;18.328;2023-03-11T05:29:51;29.70;;;3.17;;
52025;SDS011;38041;40.058;18.328;2023-03-11T05:32:21;34.53;;;5.03;;
52025;SDS011;38041;40.058;18.328;2023-03-11T05:34:50;36.00;;;5.03;;
52025;SDS011;38041;40.058;18.328;2023-03-11T05:37:18;32.13;;;5.07;;
52025;SDS011;38041;40.058;18.328;2023-03-11T05:39:48;31.93;;;4.43;;
52025;SDS011;38041;40.058;18.328;2023-03-11T05:42:16;23.67;;;3.83;;
52025;SDS011;38041;40.058;18.328;2023-03-11T05:44:48;33.17;;;4.53;;
52025;SDS011;38041;40.058;18.328;2023-03-11T05:47:16;28.87;;;4.40;;
52025;SDS011;38041;40.058;18.328;2023-03-11T05:49:48;24.13;;;3.80;;
52025;SDS011;38041;40.058;18.328;2023-03-11T05:52:17;38.20;;;5.57;;
52025;SDS011;38041;40.058;18.328;2023-03-11T05:54:49;37.97;;;6.00;;
52025;SDS011;38041;40.058;18.328;2023-03-11T05:57:21;39.20;;;4.13;;
52025;SDS011;38041;40.058;18.328;2023-03-11T05:59:49;25.90;;;5.23;;
52025;SDS011;38041;40.058;18.328;2023-03-11T06:02:18;40.60;;;6.40;;
52025;SDS011;38041;40.058;18.328;2023-03-11T06:04:48;43.27;;;6.07;;
52025;SDS011;38041;40.058;18.328;2023-03-11T06:07:17;29.90;;;5.37;;
52025;SDS011;38041;40.058;18.328;2023-03-11T06:09:48;30.87;;;4.37;;
52025;SDS011;38041;40.058;18.328;2023-03-11T06:12:17;36.47;;;6.80;;
52025;SDS011;38041;40.058;18.328;2023-03-11T06:14:53;37.43;;;6.10;;
52025;SDS011;38041;40.058;18.328;2023-03-11T06:17:21;35.67;;;5.80;;
52025;SDS011;38041;40.058;18.328;2023-03-11T06:19:49;35.87;;;6.23;;
52025;SDS011;38041;40.058;18.328;2023-03-11T06:22:16;49.43;;;7.30;;
52025;SDS011;38041;40.058;18.328;2023-03-11T06:24:44;21.33;;;3.47;;
52025;SDS011;38041;40.058;18.328;2023-03-11T06:27:12;27.27;;;5.50;;
52025;SDS011;38041;40.058;18.328;2023-03-11T06:29:40;38.00;;;5.80;;
52025;SDS011;38041;40.058;18.328;2023-03-11T06:32:08;28.03;;;5.03;;
52025;SDS011;38041;40.058;18.328;2023-03-11T06:34:36;39.87;;;5.60;;
52025;SDS011;38041;40.058;18.328;2023-03-11T06:37:05;33.17;;;4.37;;
52025;SDS011;38041;40.058;18.328;2023-03-11T06:39:32;25.60;;;5.90;;
52025;SDS011;38041;40.058;18.328;2023-03-11T06:42:00;37.40;;;4.80;;
52025;SDS011;38041;40.058;18.328;2023-03-11T06:44:28;34.40;;;5.10;;
52025;SDS011;38041;40.058;18.328;2023-03-11T06:46:56;32.20;;;4.20;;
52025;SDS011;38041;40.058;18.328;2023-03-11T06:49:24;23.53;;;3.20;;
52025;SDS011;38041;40.058;18.328;2023-03-11T06:51:52;24.47;;;5.53;;
52025;SDS011;38041;40.058;18.328;2023-03-11T06:54:19;36.93;;;5.80;;
52025;SDS011;38041;40.058;18.328;2023-03-11T06:56:47;24.33;;;4.57;;
52025;SDS011;38041;40.058;18.328;2023-03-11T06:59:15;25.77;;;3.60;;
52025;SDS011;38041;40.058;18.328;2023-03-11T07:01:43;31.43;;;5.73;;
52025;SDS011;38041;40.058;18.328;2023-03-11T07:04:12;28.63;;;4.60;;
52025;SDS011;38041;40.058;18.328;2023-03-11T07:06:40;31.27;;;4.13;;
52025;SDS011;38041;40.058;18.328;2023-03-11T07:09:17;28.30;;;3.47;;
52025;SDS011;38041;40.058;18.328;2023-03-11T07:11:47;32.07;;;6.03;;
52025;SDS011;38041;40.058;18.328;2023-03-11T07:14:22;23.73;;;3.92;;
52025;SDS011;38041;40.058;18.328;2023-03-11T07:16:53;42.03;;;4.97;;
52025;SDS011;38041;40.058;18.328;2023-03-11T07:19:27;41.07;;;4.70;;
52025;SDS011;38041;40.058;18.328;2023-03-11T07:21:55;36.00;;;5.93;;
52025;SDS011;38041;40.058;18.328;2023-03-11T07:24:23;35.20;;;5.50;;
52025;SDS011;38041;40.058;18.328;2023-03-11T07:26:50;31.17;;;4.20;;
52025;SDS011;38041;40.058;18.328;2023-03-11T07:29:18;29.90;;;4.90;;
52025;SDS011;38041;40.058;18.328;2023-03-11T07:31:46;29.07;;;4.20;;
52025;SDS011;38041;40.058;18.328;2023-03-11T07:34:15;29.40;;;4.40;;
52025;SDS011;38041;40.058;18.328;2023-03-11T07:36:42;31.37;;;5.30;;
52025;SDS011;38041;40.058;18.328;2023-03-11T07:39:15;35.73;;;4.90;;
52025;SDS011;38041;40.058;18.328;2023-03-11T07:41:43;32.00;;;4.17;;
52025;SDS011;38041;40.058;18.328;2023-03-11T07:44:11;26.70;;;5.57;;
52025;SDS011;38041;40.058;18.328;2023-03-11T07:46:39;33.43;;;4.87;;
52025;SDS011;38041;40.058;18.328;2023-03-11T07:49:07;37.63;;;6.87;;
52025;SDS011;38041;40.058;18.328;2023-03-11T07:51:36;29.67;;;4.37;;
52025;SDS011;38041;40.058;18.328;2023-03-11T07:54:04;17.77;;;4.13;;
52025;SDS011;38041;40.058;18.328;2023-03-11T07:56:32;32.10;;;4.27;;
52025;SDS011;38041;40.058;18.328;2023-03-11T07:59:01;21.83;;;3.80;;
52025;SDS011;38041;40.058;18.328;2023-03-11T08:01:29;38.37;;;5.07;;
52025;SDS011;38041;40.058;18.328;2023-03-11T08:04:06;31.90;;;5.20;;
52025;SDS011;38041;40.058;18.328;2023-03-11T08:06:34;36.47;;;5.47;;
52025;SDS011;38041;40.058;18.328;2023-03-11T08:09:03;31.37;;;4.57;;
52025;SDS011;38041;40.058;18.328;2023-03-11T08:11:32;32.00;;;4.87;;
52025;SDS011;38041;40.058;18.328;2023-03-11T08:14:00;29.30;;;5.20;;
52025;SDS011;38041;40.058;18.328;2023-03-11T08:16:28;32.00;;;4.47;;
52025;SDS011;38041;40.058;18.328;2023-03-11T08:18:56;24.80;;;4.77;;
52025;SDS011;38041;40.058;18.328;2023-03-11T08:21:25;33.23;;;5.43;;
52025;SDS011;38041;40.058;18.328;2023-03-11T08:23:55;34.80;;;5.13;;
52025;SDS011;38041;40.058;18.328;2023-03-11T08:26:23;23.43;;;5.57;;
52025;SDS011;38041;40.058;18.328;2023-03-11T08:28:51;35.40;;;4.50;;
52025;SDS011;38041;40.058;18.328;2023-03-11T08:31:20;36.13;;;5.90;;
52025;SDS011;38041;40.058;18.328;2023-03-11T08:33:50;31.57;;;4.63;;
52025;SDS011;38041;40.058;18.328;2023-03-11T08:36:18;23.30;;;6.33;;
52025;SDS011;38041;40.058;18.328;2023-03-11T08:38:46;28.00;;;5.03;;
52025;SDS011;38041;40.058;18.328;2023-03-11T08:41:14;45.20;;;6.53;;
52025;SDS011;38041;40.058;18.328;2023-03-11T08:43:42;36.43;;;5.23;;
52025;SDS011;38041;40.058;18.328;2023-03-11T08:46:23;28.20;;;3.77;;
52025;SDS011;38041;40.058;18.328;2023-03-11T08:48:51;24.13;;;3.27;;
52025;SDS011;38041;40.058;18.328;2023-03-11T08:51:20;30.37;;;3.53;;
52025;SDS011;38041;40.058;18.328;2023-03-11T08:53:47;31.73;;;4.70;;
52025;SDS011;38041;40.058;18.328;2023-03-11T08:56:15;19.10;;;4.13;;
52025;SDS011;38041;40.058;18.328;2023-03-11T08:58:43;32.17;;;4.23;;
52025;SDS011;38041;40.058;18.328;2023-03-11T09:01:11;25.47;;;3.03;;
52025;SDS011;38041;40.058;18.328;2023-03-11T09:03:39;26.63;;;3.93;;
52025;SDS011;38041;40.058;18.328;2023-03-11T09:06:09;26.80;;;4.30;;
52025;SDS011;38041;40.058;18.328;2023-03-11T09:08:37;19.60;;;4.63;;
52025;SDS011;38041;40.058;18.328;2023-03-11T09:11:05;22.73;;;3.97;;
52025;SDS011;38041;40.058;18.328;2023-03-11T09:13:33;22.27;;;4.47;;
52025;SDS011;38041;40.058;18.328;2023-03-11T09:16:01;25.47;;;3.77;;
52025;SDS011;38041;40.058;18.328;2023-03-11T09:18:31;34.53;;;3.37;;
52025;SDS011;38041;40.058;18.328;2023-03-11T09:20:59;24.13;;;4.07;;
52025;SDS011;38041;40.058;18.328;2023-03-11T09:23:27;25.10;;;3.93;;
52025;SDS011;38041;40.058;18.328;2023-03-11T09:25:54;27.87;;;3.10;;
52025;SDS011;38041;40.058;18.328;2023-03-11T09:28:22;25.20;;;4.17;;
52025;SDS011;38041;40.058;18.328;2023-03-11T09:30:50;27.03;;;4.80;;
52025;SDS011;38041;40.058;18.328;2023-03-11T09:33:18;23.63;;;4.77;;
52025;SDS011;38041;40.058;18.328;2023-03-11T09:35:45;23.87;;;4.70;;
52025;SDS011;38041;40.058;18.328;2023-03-11T09:38:14;18.93;;;3.73;;
52025;SDS011;38041;40.058;18.328;2023-03-11T09:45:54;24.57;;;7.57;;
52025;SDS011;38041;40.058;18.328;2023-03-11T09:48:36;37.90;;;10.37;;
52025;SDS011;38041;40.058;18.328;2023-03-11T09:51:14;39.23;;;13.50;;
52025;SDS011;38041;40.058;18.328;2023-03-11T09:53:44;30.90;;;10.10;;
52025;SDS011;38041;40.058;18.328;2023-03-11T09:56:12;27.30;;;8.53;;
52025;SDS011;38041;40.058;18.328;2023-03-11T09:58:43;30.70;;;8.77;;
52025;SDS011;38041;40.058;18.328;2023-03-11T10:01:16;36.00;;;11.27;;
52025;SDS011;38041;40.058;18.328;2023-03-11T10:03:46;31.27;;;9.03;;
52025;SDS011;38041;40.058;18.328;2023-03-11T10:06:22;32.67;;;7.87;;
52025;SDS011;38041;40.058;18.328;2023-03-11T10:11:42;41.80;;;14.53;;
52025;SDS011;38041;40.058;18.328;2023-03-11T10:19:51;35.87;;;9.40;;
52025;SDS011;38041;40.058;18.328;2023-03-11T10:22:38;24.67;;;6.90;;
52025;SDS011;38041;40.058;18.328;2023-03-11T10:32:55;26.43;;;7.80;;
52025;SDS011;38041;40.058;18.328;2023-03-11T10:35:27;23.03;;;7.47;;
52025;SDS011;38041;40.058;18.328;2023-03-11T10:38:02;25.77;;;7.33;;
52025;SDS011;38041;40.058;18.328;2023-03-11T10:40:32;21.13;;;4.70;;
52025;SDS011;38041;40.058;18.328;2023-03-11T10:43:02;27.43;;;6.43;;
52025;SDS011;38041;40.058;18.328;2023-03-11T10:45:35;30.70;;;9.53;;
52025;SDS011;38041;40.058;18.328;2023-03-11T10:48:07;29.30;;;5.83;;
52025;SDS011;38041;40.058;18.328;2023-03-11T10:50:35;23.73;;;3.97;;
52025;SDS011;38041;40.058;18.328;2023-03-11T10:53:12;20.67;;;5.33;;
52025;SDS011;38041;40.058;18.328;2023-03-11T10:55:48;27.70;;;9.27;;
52025;SDS011;38041;40.058;18.328;2023-03-11T10:58:18;17.45;;;5.63;;
52025;SDS011;38041;40.058;18.328;2023-03-11T11:00:49;25.60;;;5.27;;
52025;SDS011;38041;40.058;18.328;2023-03-11T11:03:25;25.97;;;4.77;;
52025;SDS011;38041;40.058;18.328;2023-03-11T11:05:57;18.67;;;4.53;;
52025;SDS011;38041;40.058;18.328;2023-03-11T11:08:25;12.77;;;2.77;;
52025;SDS011;38041;40.058;18.328;2023-03-11T11:10:54;24.73;;;2.47;;
52025;SDS011;38041;40.058;18.328;2023-03-11T11:13:23;8.83;;;1.70;;
52025;SDS011;38041;40.058;18.328;2023-03-11T11:20:53;12.98;;;1.60;;
52025;SDS011;38041;40.058;18.328;2023-03-11T11:26:06;14.68;;;2.25;;
52025;SDS011;38041;40.058;18.328;2023-03-11T11:28:35;10.27;;;0.70;;
52025;SDS011;38041;40.058;18.328;2023-03-11T11:31:04;9.15;;;2.05;;
52025;SDS011;38041;40.058;18.328;2023-03-11T11:33:35;9.35;;;1.30;;
52025;SDS011;38041;40.058;18.328;2023-03-11T11:36:05;10.90;;;2.05;;
52025;SDS011;38041;40.058;18.328;2023-03-11T11:38:38;13.17;;;1.77;;
52025;SDS011;38041;40.058;18.328;2023-03-11T11:41:07;13.70;;;1.80;;
52025;SDS011;38041;40.058;18.328;2023-03-11T11:43:41;9.80;;;1.70;;
52025;SDS011;38041;40.058;18.328;2023-03-11T11:48:55;12.17;;;1.30;;
52025;SDS011;38041;40.058;18.328;2023-03-11T11:51:35;8.35;;;1.25;;
52025;SDS011;38041;40.058;18.328;2023-03-11T11:56:36;13.23;;;1.50;;
52025;SDS011;38041;40.058;18.328;2023-03-11T11:59:13;12.90;;;1.52;;
52025;SDS011;38041;40.058;18.328;2023-03-11T12:04:19;14.93;;;1.15;;
52025;SDS011;38041;40.058;18.328;2023-03-11T12:09:47;5.28;;;0.82;;
52025;SDS011;38041;40.058;18.328;2023-03-11T12:12:31;16.50;;;4.95;;
52025;SDS011;38041;40.058;18.328;2023-03-11T12:17:38;14.38;;;4.22;;
52025;SDS011;38041;40.058;18.328;2023-03-11T12:20:11;15.32;;;5.15;;
52025;SDS011;38041;40.058;18.328;2023-03-11T12:25:28;11.30;;;5.45;;
52025;SDS011;38041;40.058;18.328;2023-03-11T12:28:00;8.45;;;2.47;;
52025;SDS011;38041;40.058;18.328;2023-03-11T12:30:32;7.78;;;1.88;;
52025;SDS011;38041;40.058;18.328;2023-03-11T12:33:03;10.85;;;4.55;;
52025;SDS011;38041;40.058;18.328;2023-03-11T12:35:32;13.05;;;5.72;;
52025;SDS011;38041;40.058;18.328;2023-03-11T12:38:05;11.15;;;3.38;;
52025;SDS011;38041;40.058;18.328;2023-03-11T12:46:02;8.60;;;2.73;;
52025;SDS011;38041;40.058;18.328;2023-03-11T12:51:20;20.70;;;6.40;;
52025;SDS011;38041;40.058;18.328;2023-03-11T12:53:54;26.60;;;12.27;;
52025;SDS011;38041;40.058;18.328;2023-03-11T13:04:03;16.57;;;7.27;;
52025;SDS011;38041;40.058;18.328;2023-03-11T13:06:51;8.13;;;4.10;;
52025;SDS011;38041;40.058;18.328;2023-03-11T13:09:23;5.33;;;1.27;;
52025;SDS011;38041;40.058;18.328;2023-03-11T13:11:50;17.07;;;1.63;;
52025;SDS011;38041;40.058;18.328;2023-03-11T13:16:56;7.73;;;2.03;;
52025;SDS011;38041;40.058;18.328;2023-03-11T13:19:46;10.90;;;2.33;;
52025;SDS011;38041;40.058;18.328;2023-03-11T13:25:16;7.97;;;1.20;;
52025;SDS011;38041;40.058;18.328;2023-03-11T13:27:46;6.40;;;0.87;;
52025;SDS011;38041;40.058;18.328;2023-03-11T13:30:17;6.77;;;1.80;;
52025;SDS011;38041;40.058;18.328;2023-03-11T13:35:38;10.93;;;4.93;;
52025;SDS011;38041;40.058;18.328;2023-03-11T13:40:55;12.20;;;4.40;;
52025;SDS011;38041;40.058;18.328;2023-03-11T13:43:24;18.35;;;10.57;;
52025;SDS011;38041;40.058;18.328;2023-03-11T13:45:54;14.32;;;6.57;;
52025;SDS011;38041;40.058;18.328;2023-03-11T13:48:31;8.83;;;4.40;;
52025;SDS011;38041;40.058;18.328;2023-03-11T13:53:42;11.05;;;3.25;;
52025;SDS011;38041;40.058;18.328;2023-03-11T13:56:23;9.02;;;4.57;;
52025;SDS011;38041;40.058;18.328;2023-03-11T13:58:53;13.02;;;6.15;;
52025;SDS011;38041;40.058;18.328;2023-03-11T14:01:20;20.90;;;8.43;;
52025;SDS011;38041;40.058;18.328;2023-03-11T14:03:48;9.40;;;3.03;;
52025;SDS011;38041;40.058;18.328;2023-03-11T14:06:18;11.80;;;6.10;;
52025;SDS011;38041;40.058;18.328;2023-03-11T14:08:52;11.85;;;6.07;;
52025;SDS011;38041;40.058;18.328;2023-03-11T14:11:24;7.35;;;3.17;;
52025;SDS011;38041;40.058;18.328;2023-03-11T14:13:52;16.05;;;5.80;;
52025;SDS011;38041;40.058;18.328;2023-03-11T14:16:36;8.88;;;2.15;;
52025;SDS011;38041;40.058;18.328;2023-03-11T14:19:13;10.85;;;2.95;;
52025;SDS011;38041;40.058;18.328;2023-03-11T14:21:42;5.30;;;2.00;;
52025;SDS011;38041;40.058;18.328;2023-03-11T14:26:44;8.75;;;1.65;;
52025;SDS011;38041;40.058;18.328;2023-03-11T14:29:15;6.82;;;2.80;;
52025;SDS011;38041;40.058;18.328;2023-03-11T14:31:45;7.13;;;1.50;;
52025;SDS011;38041;40.058;18.328;2023-03-11T14:34:14;6.00;;;0.75;;
52025;SDS011;38041;40.058;18.328;2023-03-11T14:36:49;6.43;;;1.38;;
52025;SDS011;38041;40.058;18.328;2023-03-11T14:44:25;10.20;;;2.35;;
52025;SDS011;38041;40.058;18.328;2023-03-11T14:47:00;6.15;;;0.77;;
52025;SDS011;38041;40.058;18.328;2023-03-11T14:49:29;5.18;;;0.52;;
52025;SDS011;38041;40.058;18.328;2023-03-11T14:52:01;4.75;;;0.57;;
52025;SDS011;38041;40.058;18.328;2023-03-11T14:54:32;7.97;;;0.93;;
52025;SDS011;38041;40.058;18.328;2023-03-11T14:57:06;3.35;;;0.30;;
52025;SDS011;38041;40.058;18.328;2023-03-11T14:59:35;5.30;;;0.75;;
52025;SDS011;38041;40.058;18.328;2023-03-11T15:02:14;5.03;;;0.40;;
52025;SDS011;38041;40.058;18.328;2023-03-11T15:04:49;4.88;;;0.93;;
52025;SDS011;38041;40.058;18.328;2023-03-11T15:07:18;7.60;;;0.82;;
52025;SDS011;38041;40.058;18.328;2023-03-11T15:09:46;3.50;;;0.50;;
52025;SDS011;38041;40.058;18.328;2023-03-11T15:12:34;8.45;;;0.65;;
52025;SDS011;38041;40.058;18.328;2023-03-11T15:15:02;3.90;;;0.73;;
52025;SDS011;38041;40.058;18.328;2023-03-11T15:17:30;4.55;;;0.50;;
52025;SDS011;38041;40.058;18.328;2023-03-11T15:20:26;7.00;;;1.45;;
52025;SDS011;38041;40.058;18.328;2023-03-11T15:23:02;6.38;;;1.23;;
52025;SDS011;38041;40.058;18.328;2023-03-11T15:25:33;7.95;;;1.38;;
52025;SDS011;38041;40.058;18.328;2023-03-11T15:31:16;5.13;;;1.10;;
52025;SDS011;38041;40.058;18.328;2023-03-11T15:42:00;3.00;;;0.52;;
52025;SDS011;38041;40.058;18.328;2023-03-11T15:44:33;7.70;;;1.08;;
52025;SDS011;38041;40.058;18.328;2023-03-11T15:47:11;7.95;;;1.95;;
52025;SDS011;38041;40.058;18.328;2023-03-11T15:49:39;14.85;;;1.95;;
52025;SDS011;38041;40.058;18.328;2023-03-11T15:52:08;9.55;;;3.33;;
52025;SDS011;38041;40.058;18.328;2023-03-11T15:54:36;8.07;;;2.75;;
52025;SDS011;38041;40.058;18.328;2023-03-11T15:57:05;16.08;;;3.17;;
52025;SDS011;38041;40.058;18.328;2023-03-11T15:59:33;10.48;;;2.03;;
52025;SDS011;38041;40.058;18.328;2023-03-11T16:02:01;9.88;;;2.97;;
52025;SDS011;38041;40.058;18.328;2023-03-11T16:04:29;16.60;;;2.72;;
52025;SDS011;38041;40.058;18.328;2023-03-11T16:06:58;14.63;;;2.50;;
52025;SDS011;38041;40.058;18.328;2023-03-11T16:09:33;12.38;;;2.58;;
52025;SDS011;38041;40.058;18.328;2023-03-11T16:12:04;15.30;;;2.33;;
52025;SDS011;38041;40.058;18.328;2023-03-11T16:14:35;15.05;;;2.50;;
52025;SDS011;38041;40.058;18.328;2023-03-11T16:17:03;10.77;;;2.30;;
52025;SDS011;38041;40.058;18.328;2023-03-11T16:19:31;13.00;;;2.55;;
52025;SDS011;38041;40.058;18.328;2023-03-11T16:21:58;10.55;;;2.28;;
52025;SDS011;38041;40.058;18.328;2023-03-11T16:24:26;15.18;;;4.15;;